»·PEaware :: N71K KSNA-KSBA

N71K :: KSNA-KSBA

FLIGHT INFORMATION

Flight Status: Arrived
Operator: Privately registered:
United States
More flights under this callsign
Pilot: Ryan C. (15122)
Aircraft: CESSNA 340
(C340)
More flights by this aircraft type
Origin: KSNA John Wayne-Orange Co
United States
Destination: KSBA Santa Barbara Mun
United States
More flights between these airports :: More routes between these airports
Route: +
File this flight plan on PilotEdge
Remarks:
Altitude:
(Current/Filed)
0ft
Speed:
(Current/Filed)
0kts
Departed: 11-Feb-19 10:07 PM
Arrived: 11-Feb-19 10:54 PM
Distance/Time
Traveled:
127nm/0:46
Distance/Time
To Go:
Arrived

Flight Plot

Page will automatically refresh every two minutes.


Map Options




Map Legend


Flown Route
Filed Route
Departure Airport
Arrival Airport
Navaid (VOR, NDB)
Fix

Horizontal Profiles

Position Reports

Time Latitude Longitude Heading Altitude Ground
Speed
11-Feb-19 21:53 33.668082 -117.870964 220 60ft 0kts
11-Feb-19 21:54 33.668083 -117.871192 310 60ft 0kts
11-Feb-19 21:55 33.668083 -117.871192 310 60ft 0kts
11-Feb-19 21:56 33.668083 -117.871192 310 60ft 0kts
11-Feb-19 21:57 33.668084 -117.871192 310 60ft 0kts
11-Feb-19 21:58 33.669546 -117.870492 40 60ft 10kts
11-Feb-19 21:59 33.672399 -117.867947 27 60ft 12kts
11-Feb-19 22:00 33.673186 -117.868021 28 60ft 0kts
11-Feb-19 22:01 33.673238 -117.867944 58 60ft 1kts
11-Feb-19 22:02 33.674614 -117.866769 27 60ft 12kts
11-Feb-19 22:03 33.677961 -117.864647 28 60ft 14kts
11-Feb-19 22:04 33.679968 -117.863632 298 60ft 0kts
11-Feb-19 22:05 33.680030 -117.863772 298 60ft 4kts
11-Feb-19 22:06 33.666697 -117.874926 239 548ft 111kts
11-Feb-19 22:07 33.656668 -117.911626 253 1956ft 117kts
11-Feb-19 22:08 33.643533 -117.944468 219 3258ft 107kts
11-Feb-19 22:09 33.624695 -117.980583 233 4615ft 135kts
11-Feb-19 22:10 33.603426 -118.017472 250 6176ft 135kts
11-Feb-19 22:11 33.589969 -118.061544 255 6899ft 165kts
11-Feb-19 22:12 33.575385 -118.114820 249 6851ft 169kts
11-Feb-19 22:13 33.559401 -118.163520 252 7558ft 146kts
11-Feb-19 22:14 33.541378 -118.206608 241 8286ft 148kts
11-Feb-19 22:15 33.519011 -118.248813 242 9084ft 150kts
11-Feb-19 22:16 33.498496 -118.292131 252 9879ft 148kts
11-Feb-19 22:17 33.485885 -118.339034 256 10498ft 157kts
11-Feb-19 22:18 33.475883 -118.392491 281 10491ft 167kts
11-Feb-19 22:19 33.487578 -118.447118 301 10487ft 172kts
11-Feb-19 22:20 33.516702 -118.493200 310 10482ft 174kts
11-Feb-19 22:21 33.548153 -118.537824 309 10480ft 174kts
11-Feb-19 22:22 33.579000 -118.582686 309 10478ft 174kts
11-Feb-19 22:23 33.609628 -118.627453 309 10478ft 173kts
11-Feb-19 22:24 33.640303 -118.672348 309 10485ft 174kts
11-Feb-19 22:25 33.670942 -118.717223 309 10489ft 174kts
11-Feb-19 22:26 33.701642 -118.762325 309 10492ft 174kts
11-Feb-19 22:27 33.732506 -118.807650 309 10476ft 175kts
11-Feb-19 22:28 33.763292 -118.852921 308 10483ft 175kts
11-Feb-19 22:29 33.793575 -118.897490 308 10486ft 175kts
11-Feb-19 22:30 33.824481 -118.943040 308 10489ft 175kts
11-Feb-19 22:31 33.855495 -118.988810 306 10494ft 177kts
11-Feb-19 22:32 33.887605 -119.034000 313 10497ft 180kts
11-Feb-19 22:33 33.924458 -119.074971 314 10498ft 180kts
11-Feb-19 22:34 33.960555 -119.115075 314 10497ft 181kts
11-Feb-19 22:35 34.000053 -119.152871 319 10496ft 182kts
11-Feb-19 22:36 34.043008 -119.185753 325 10493ft 183kts
11-Feb-19 22:37 34.085245 -119.218902 304 10485ft 179kts
11-Feb-19 22:38 34.113174 -119.268812 301 10372ft 184kts
11-Feb-19 22:39 34.142712 -119.322651 302 9661ft 193kts
11-Feb-19 22:40 34.172177 -119.376372 303 8839ft 192kts
11-Feb-19 22:41 34.201657 -119.430029 303 7998ft 191kts
11-Feb-19 22:42 34.234774 -119.480088 312 7143ft 192kts
11-Feb-19 22:43 34.270823 -119.528943 312 6012ft 196kts
11-Feb-19 22:44 34.304348 -119.581035 300 4898ft 197kts
11-Feb-19 22:45 34.331420 -119.637046 307 3871ft 193kts
11-Feb-19 22:46 34.362462 -119.683961 308 2981ft 187kts
11-Feb-19 22:47 34.392909 -119.730984 322 2509ft 162kts
11-Feb-19 22:48 34.424635 -119.730587 86 2483ft 128kts
11-Feb-19 22:49 34.416307 -119.747191 295 2278ft 162kts
11-Feb-19 22:50 34.436585 -119.785788 244 1746ft 131kts
11-Feb-19 22:51 34.427160 -119.814193 282 566ft 78kts
11-Feb-19 22:52 34.427804 -119.840635 267 16ft 57kts
11-Feb-19 22:53 34.428491 -119.845296 65 16ft 4kts
11-Feb-19 22:54 34.428904 -119.841017 87 16ft 14kts
11-Feb-19 22:55 34.428997 -119.836219 90 16ft 14kts
11-Feb-19 22:56 34.428716 -119.834711 176 16ft 0kts
11-Feb-19 22:57 34.427871 -119.835290 269 16ft 4kts
11-Feb-19 22:58 34.426620 -119.863519 265 964ft 115kts
11-Feb-19 22:59 34.419627 -119.906301 266 1973ft 127kts
11-Feb-19 23:00 34.425500 -119.947907 281 3461ft 127kts
11-Feb-19 23:01 34.430819 -119.990511 286 4905ft 128kts
11-Feb-19 23:02 34.447361 -120.026581 303 5777ft 125kts
11-Feb-19 23:03 34.469502 -120.058977 320 6043ft 126kts
11-Feb-19 23:04 34.493990 -120.095013 304 6949ft 143kts
11-Feb-19 23:05 34.495707 -120.144905 270 7846ft 149kts
11-Feb-19 23:06 34.480021 -120.180816 296 8566ft 158kts
11-Feb-19 23:07 34.521016 -120.211506 328 8602ft 189kts

Navigation Log

Ident Type
Flight plan parsing failed, navigation log unavailable